Darden, Tennessee
Current Conditions -  °F | °C
As of 4:55 AM on Friday 19 Dec 2014 (Local Time) from KPVE Reporting Station
Overcast Overcast  
Wind Chill: 32°   Ceiling: 4000
Heat Index: 36°   Visibility: 10mi
Dew Point: 34°   Wind: 5mph
Humidity: 93%   Direction: 30°NNE
Pressure: 30.2"   Gusts: NA
Location:  35.64°N, 88.22°W
Report Text: KPVE 191055Z AUTO 03004KT 10SM FEW009 OVC040 02/01 A3020 RMK
Loading
Personal Weather Stations






























Interactive Weather Map New forecast layout! Learn more

10-Day Weather Forecast

Advertisements
Track Severe Weather on mobile